sensor_id;sensor_type;location;lat;lon;timestamp;P1;durP1;ratioP1;P2;durP2;ratioP2
52318;SDS011;38258;51.148;14.068;2023-06-10T00:01:27;10.73;;;8.98;;
52318;SDS011;38258;51.148;14.068;2023-06-10T00:03:55;11.55;;;9.45;;
52318;SDS011;38258;51.148;14.068;2023-06-10T00:06:22;12.52;;;9.65;;
52318;SDS011;38258;51.148;14.068;2023-06-10T00:08:50;13.15;;;9.43;;
52318;SDS011;38258;51.148;14.068;2023-06-10T00:11:17;12.90;;;9.60;;
52318;SDS011;38258;51.148;14.068;2023-06-10T00:13:44;13.30;;;10.52;;
52318;SDS011;38258;51.148;14.068;2023-06-10T00:16:10;13.35;;;10.13;;
52318;SDS011;38258;51.148;14.068;2023-06-10T00:18:37;10.57;;;9.02;;
52318;SDS011;38258;51.148;14.068;2023-06-10T00:21:04;11.75;;;9.30;;
52318;SDS011;38258;51.148;14.068;2023-06-10T00:23:31;11.32;;;8.95;;
52318;SDS011;38258;51.148;14.068;2023-06-10T00:26:04;10.73;;;8.57;;
52318;SDS011;38258;51.148;14.068;2023-06-10T00:28:31;12.82;;;8.38;;
52318;SDS011;38258;51.148;14.068;2023-06-10T00:30:58;12.57;;;8.52;;
52318;SDS011;38258;51.148;14.068;2023-06-10T00:33:24;9.75;;;7.72;;
52318;SDS011;38258;51.148;14.068;2023-06-10T00:35:51;10.45;;;8.07;;
52318;SDS011;38258;51.148;14.068;2023-06-10T00:38:18;9.23;;;7.30;;
52318;SDS011;38258;51.148;14.068;2023-06-10T00:40:44;9.23;;;6.97;;
52318;SDS011;38258;51.148;14.068;2023-06-10T00:43:13;10.60;;;7.93;;
52318;SDS011;38258;51.148;14.068;2023-06-10T00:45:39;9.13;;;7.03;;
52318;SDS011;38258;51.148;14.068;2023-06-10T00:48:06;8.55;;;7.10;;
52318;SDS011;38258;51.148;14.068;2023-06-10T00:50:33;8.65;;;7.18;;
52318;SDS011;38258;51.148;14.068;2023-06-10T00:53:04;8.23;;;7.25;;
52318;SDS011;38258;51.148;14.068;2023-06-10T00:55:31;9.80;;;7.45;;
52318;SDS011;38258;51.148;14.068;2023-06-10T00:57:58;8.85;;;6.68;;
52318;SDS011;38258;51.148;14.068;2023-06-10T01:00:27;7.90;;;6.63;;
52318;SDS011;38258;51.148;14.068;2023-06-10T01:02:54;8.77;;;7.00;;
52318;SDS011;38258;51.148;14.068;2023-06-10T01:05:20;8.50;;;7.60;;
52318;SDS011;38258;51.148;14.068;2023-06-10T01:07:52;9.85;;;7.80;;
52318;SDS011;38258;51.148;14.068;2023-06-10T01:10:28;9.15;;;7.97;;
52318;SDS011;38258;51.148;14.068;2023-06-10T01:12:59;10.00;;;7.70;;
52318;SDS011;38258;51.148;14.068;2023-06-10T01:15:30;8.95;;;7.68;;
52318;SDS011;38258;51.148;14.068;2023-06-10T01:17:58;10.40;;;8.43;;
52318;SDS011;38258;51.148;14.068;2023-06-10T01:20:29;9.25;;;7.82;;
52318;SDS011;38258;51.148;14.068;2023-06-10T01:22:59;11.07;;;8.50;;
52318;SDS011;38258;51.148;14.068;2023-06-10T01:25:28;10.65;;;8.73;;
52318;SDS011;38258;51.148;14.068;2023-06-10T01:27:59;10.75;;;8.70;;
52318;SDS011;38258;51.148;14.068;2023-06-10T01:30:30;11.45;;;8.55;;
52318;SDS011;38258;51.148;14.068;2023-06-10T01:33:03;10.43;;;8.67;;
52318;SDS011;38258;51.148;14.068;2023-06-10T01:35:32;9.25;;;8.07;;
52318;SDS011;38258;51.148;14.068;2023-06-10T01:38:04;9.70;;;8.18;;
52318;SDS011;38258;51.148;14.068;2023-06-10T01:40:32;8.98;;;7.78;;
52318;SDS011;38258;51.148;14.068;2023-06-10T01:43:00;9.23;;;8.07;;
52318;SDS011;38258;51.148;14.068;2023-06-10T01:45:26;9.60;;;7.45;;
52318;SDS011;38258;51.148;14.068;2023-06-10T01:47:53;8.82;;;7.22;;
52318;SDS011;38258;51.148;14.068;2023-06-10T01:50:20;9.65;;;8.10;;
52318;SDS011;38258;51.148;14.068;2023-06-10T01:52:46;9.27;;;7.68;;
52318;SDS011;38258;51.148;14.068;2023-06-10T01:55:14;9.18;;;7.00;;
52318;SDS011;38258;51.148;14.068;2023-06-10T01:57:41;8.18;;;6.95;;
52318;SDS011;38258;51.148;14.068;2023-06-10T02:00:08;8.65;;;7.20;;
52318;SDS011;38258;51.148;14.068;2023-06-10T02:02:43;9.95;;;7.95;;
52318;SDS011;38258;51.148;14.068;2023-06-10T02:05:10;10.40;;;7.93;;
52318;SDS011;38258;51.148;14.068;2023-06-10T02:07:37;10.30;;;7.35;;
52318;SDS011;38258;51.148;14.068;2023-06-10T02:10:04;8.82;;;7.18;;
52318;SDS011;38258;51.148;14.068;2023-06-10T02:12:33;9.05;;;7.15;;
52318;SDS011;38258;51.148;14.068;2023-06-10T02:15:00;7.70;;;6.47;;
52318;SDS011;38258;51.148;14.068;2023-06-10T02:17:27;7.80;;;6.50;;
52318;SDS011;38258;51.148;14.068;2023-06-10T02:19:53;9.30;;;7.60;;
52318;SDS011;38258;51.148;14.068;2023-06-10T02:22:21;8.75;;;7.35;;
52318;SDS011;38258;51.148;14.068;2023-06-10T02:24:49;8.57;;;7.13;;
52318;SDS011;38258;51.148;14.068;2023-06-10T02:27:16;8.50;;;6.82;;
52318;SDS011;38258;51.148;14.068;2023-06-10T02:29:44;9.70;;;7.85;;
52318;SDS011;38258;51.148;14.068;2023-06-10T02:32:11;10.57;;;7.20;;
52318;SDS011;38258;51.148;14.068;2023-06-10T02:34:39;9.30;;;7.25;;
52318;SDS011;38258;51.148;14.068;2023-06-10T02:37:08;10.45;;;7.78;;
52318;SDS011;38258;51.148;14.068;2023-06-10T02:39:35;11.57;;;8.65;;
52318;SDS011;38258;51.148;14.068;2023-06-10T02:42:06;12.07;;;8.98;;
52318;SDS011;38258;51.148;14.068;2023-06-10T02:44:33;10.20;;;8.13;;
52318;SDS011;38258;51.148;14.068;2023-06-10T02:47:01;10.43;;;7.55;;
52318;SDS011;38258;51.148;14.068;2023-06-10T02:49:28;8.70;;;7.05;;
52318;SDS011;38258;51.148;14.068;2023-06-10T02:51:56;11.48;;;7.03;;
52318;SDS011;38258;51.148;14.068;2023-06-10T02:54:23;10.40;;;8.35;;
52318;SDS011;38258;51.148;14.068;2023-06-10T02:56:52;9.95;;;7.65;;
52318;SDS011;38258;51.148;14.068;2023-06-10T02:59:23;11.18;;;7.82;;
52318;SDS011;38258;51.148;14.068;2023-06-10T03:01:50;11.43;;;8.07;;
52318;SDS011;38258;51.148;14.068;2023-06-10T03:04:18;10.65;;;8.35;;
52318;SDS011;38258;51.148;14.068;2023-06-10T03:06:54;10.40;;;7.45;;
52318;SDS011;38258;51.148;14.068;2023-06-10T03:09:26;11.25;;;8.20;;
52318;SDS011;38258;51.148;14.068;2023-06-10T03:11:56;10.82;;;8.00;;
52318;SDS011;38258;51.148;14.068;2023-06-10T03:14:24;9.05;;;7.32;;
52318;SDS011;38258;51.148;14.068;2023-06-10T03:16:52;10.57;;;7.72;;
52318;SDS011;38258;51.148;14.068;2023-06-10T03:19:21;14.27;;;8.90;;
52318;SDS011;38258;51.148;14.068;2023-06-10T03:21:57;11.75;;;8.88;;
52318;SDS011;38258;51.148;14.068;2023-06-10T03:24:24;9.75;;;7.78;;
52318;SDS011;38258;51.148;14.068;2023-06-10T03:26:51;10.73;;;8.18;;
52318;SDS011;38258;51.148;14.068;2023-06-10T03:29:17;11.60;;;8.88;;
52318;SDS011;38258;51.148;14.068;2023-06-10T03:31:45;12.27;;;8.43;;
52318;SDS011;38258;51.148;14.068;2023-06-10T03:34:11;10.10;;;8.25;;
52318;SDS011;38258;51.148;14.068;2023-06-10T03:36:40;12.10;;;9.63;;
52318;SDS011;38258;51.148;14.068;2023-06-10T03:39:08;11.25;;;8.40;;
52318;SDS011;38258;51.148;14.068;2023-06-10T03:41:36;10.60;;;8.07;;
52318;SDS011;38258;51.148;14.068;2023-06-10T03:44:03;13.98;;;8.00;;
52318;SDS011;38258;51.148;14.068;2023-06-10T03:46:30;11.52;;;8.32;;
52318;SDS011;38258;51.148;14.068;2023-06-10T03:48:57;10.60;;;8.25;;
52318;SDS011;38258;51.148;14.068;2023-06-10T03:51:26;12.00;;;8.32;;
52318;SDS011;38258;51.148;14.068;2023-06-10T03:53:54;10.38;;;8.07;;
52318;SDS011;38258;51.148;14.068;2023-06-10T03:56:21;9.38;;;7.20;;
52318;SDS011;38258;51.148;14.068;2023-06-10T03:58:48;9.65;;;7.90;;
52318;SDS011;38258;51.148;14.068;2023-06-10T04:01:15;9.50;;;7.35;;
52318;SDS011;38258;51.148;14.068;2023-06-10T04:03:43;9.70;;;6.95;;
52318;SDS011;38258;51.148;14.068;2023-06-10T04:06:10;9.70;;;7.53;;
52318;SDS011;38258;51.148;14.068;2023-06-10T04:08:36;11.15;;;8.85;;
52318;SDS011;38258;51.148;14.068;2023-06-10T04:11:05;11.20;;;8.77;;
52318;SDS011;38258;51.148;14.068;2023-06-10T04:13:34;10.88;;;8.02;;
52318;SDS011;38258;51.148;14.068;2023-06-10T04:16:01;10.05;;;7.80;;
52318;SDS011;38258;51.148;14.068;2023-06-10T04:18:28;8.20;;;6.78;;
52318;SDS011;38258;51.148;14.068;2023-06-10T04:20:59;9.40;;;7.80;;
52318;SDS011;38258;51.148;14.068;2023-06-10T04:23:26;10.55;;;7.07;;
52318;SDS011;38258;51.148;14.068;2023-06-10T04:25:53;9.82;;;7.47;;
52318;SDS011;38258;51.148;14.068;2023-06-10T04:28:21;9.15;;;6.53;;
52318;SDS011;38258;51.148;14.068;2023-06-10T04:30:48;8.85;;;6.78;;
52318;SDS011;38258;51.148;14.068;2023-06-10T04:33:15;10.55;;;7.10;;
52318;SDS011;38258;51.148;14.068;2023-06-10T04:35:42;8.10;;;6.55;;
52318;SDS011;38258;51.148;14.068;2023-06-10T04:38:12;9.02;;;6.70;;
52318;SDS011;38258;51.148;14.068;2023-06-10T04:40:39;10.00;;;6.88;;
52318;SDS011;38258;51.148;14.068;2023-06-10T04:43:07;8.43;;;6.82;;
52318;SDS011;38258;51.148;14.068;2023-06-10T04:45:35;10.05;;;5.72;;
52318;SDS011;38258;51.148;14.068;2023-06-10T04:48:02;6.82;;;5.70;;
52318;SDS011;38258;51.148;14.068;2023-06-10T04:50:28;6.88;;;5.25;;
52318;SDS011;38258;51.148;14.068;2023-06-10T04:52:55;9.77;;;5.80;;
52318;SDS011;38258;51.148;14.068;2023-06-10T04:55:23;5.60;;;4.97;;
52318;SDS011;38258;51.148;14.068;2023-06-10T04:57:50;6.22;;;5.18;;
52318;SDS011;38258;51.148;14.068;2023-06-10T05:00:17;6.93;;;5.05;;
52318;SDS011;38258;51.148;14.068;2023-06-10T05:02:45;6.85;;;5.30;;
52318;SDS011;38258;51.148;14.068;2023-06-10T05:05:14;6.88;;;5.47;;
52318;SDS011;38258;51.148;14.068;2023-06-10T05:07:41;6.28;;;5.20;;
52318;SDS011;38258;51.148;14.068;2023-06-10T05:10:08;6.70;;;5.68;;
52318;SDS011;38258;51.148;14.068;2023-06-10T05:12:37;8.10;;;5.43;;
52318;SDS011;38258;51.148;14.068;2023-06-10T05:15:04;6.75;;;5.30;;
52318;SDS011;38258;51.148;14.068;2023-06-10T05:17:32;7.22;;;5.68;;
52318;SDS011;38258;51.148;14.068;2023-06-10T05:20:01;6.57;;;5.68;;
52318;SDS011;38258;51.148;14.068;2023-06-10T05:22:28;7.25;;;5.90;;
52318;SDS011;38258;51.148;14.068;2023-06-10T05:24:54;8.45;;;6.07;;
52318;SDS011;38258;51.148;14.068;2023-06-10T05:27:22;7.40;;;5.75;;
52318;SDS011;38258;51.148;14.068;2023-06-10T05:29:49;7.25;;;5.80;;
52318;SDS011;38258;51.148;14.068;2023-06-10T05:32:16;7.93;;;6.20;;
52318;SDS011;38258;51.148;14.068;2023-06-10T05:34:43;8.30;;;6.10;;
52318;SDS011;38258;51.148;14.068;2023-06-10T05:37:11;8.85;;;6.18;;
52318;SDS011;38258;51.148;14.068;2023-06-10T05:39:38;7.78;;;6.25;;
52318;SDS011;38258;51.148;14.068;2023-06-10T05:42:05;10.25;;;7.07;;
52318;SDS011;38258;51.148;14.068;2023-06-10T05:44:33;9.23;;;6.53;;
52318;SDS011;38258;51.148;14.068;2023-06-10T05:47:01;9.48;;;7.15;;
52318;SDS011;38258;51.148;14.068;2023-06-10T05:49:28;7.13;;;6.43;;
52318;SDS011;38258;51.148;14.068;2023-06-10T05:51:55;8.32;;;6.32;;
52318;SDS011;38258;51.148;14.068;2023-06-10T05:54:24;6.85;;;6.15;;
52318;SDS011;38258;51.148;14.068;2023-06-10T05:56:51;6.50;;;5.90;;
52318;SDS011;38258;51.148;14.068;2023-06-10T05:59:17;7.93;;;6.28;;
52318;SDS011;38258;51.148;14.068;2023-06-10T06:01:44;6.95;;;6.18;;
52318;SDS011;38258;51.148;14.068;2023-06-10T06:04:10;7.05;;;6.35;;
52318;SDS011;38258;51.148;14.068;2023-06-10T06:06:38;7.30;;;6.20;;
52318;SDS011;38258;51.148;14.068;2023-06-10T06:09:05;7.65;;;6.50;;
52318;SDS011;38258;51.148;14.068;2023-06-10T06:11:33;9.80;;;7.03;;
52318;SDS011;38258;51.148;14.068;2023-06-10T06:14:00;6.90;;;6.20;;
52318;SDS011;38258;51.148;14.068;2023-06-10T06:16:26;7.10;;;6.03;;
52318;SDS011;38258;51.148;14.068;2023-06-10T06:18:53;8.73;;;7.00;;
52318;SDS011;38258;51.148;14.068;2023-06-10T06:21:20;6.93;;;6.22;;
52318;SDS011;38258;51.148;14.068;2023-06-10T06:23:46;7.18;;;6.32;;
52318;SDS011;38258;51.148;14.068;2023-06-10T06:26:13;8.80;;;6.38;;
52318;SDS011;38258;51.148;14.068;2023-06-10T06:28:41;8.45;;;6.65;;
52318;SDS011;38258;51.148;14.068;2023-06-10T06:31:08;7.15;;;6.35;;
52318;SDS011;38258;51.148;14.068;2023-06-10T06:33:34;7.18;;;6.47;;
52318;SDS011;38258;51.148;14.068;2023-06-10T06:36:01;8.07;;;6.30;;
52318;SDS011;38258;51.148;14.068;2023-06-10T06:38:27;8.95;;;6.97;;
52318;SDS011;38258;51.148;14.068;2023-06-10T06:40:54;8.00;;;6.60;;
52318;SDS011;38258;51.148;14.068;2023-06-10T06:43:20;9.40;;;6.95;;
52318;SDS011;38258;51.148;14.068;2023-06-10T06:45:56;9.63;;;7.32;;
52318;SDS011;38258;51.148;14.068;2023-06-10T06:48:22;8.10;;;7.30;;
52318;SDS011;38258;51.148;14.068;2023-06-10T06:50:49;8.60;;;7.65;;
52318;SDS011;38258;51.148;14.068;2023-06-10T06:53:15;8.57;;;7.68;;
52318;SDS011;38258;51.148;14.068;2023-06-10T06:55:42;8.80;;;7.60;;
52318;SDS011;38258;51.148;14.068;2023-06-10T06:58:08;8.93;;;7.70;;
52318;SDS011;38258;51.148;14.068;2023-06-10T07:00:35;9.63;;;6.70;;
52318;SDS011;38258;51.148;14.068;2023-06-10T07:03:03;6.90;;;6.20;;
52318;SDS011;38258;51.148;14.068;2023-06-10T07:05:29;7.10;;;6.40;;
52318;SDS011;38258;51.148;14.068;2023-06-10T07:07:56;8.02;;;5.60;;
52318;SDS011;38258;51.148;14.068;2023-06-10T07:10:22;7.85;;;6.30;;
52318;SDS011;38258;51.148;14.068;2023-06-10T07:12:50;6.70;;;6.00;;
52318;SDS011;38258;51.148;14.068;2023-06-10T07:15:17;6.75;;;5.80;;
52318;SDS011;38258;51.148;14.068;2023-06-10T07:17:43;7.60;;;5.80;;
52318;SDS011;38258;51.148;14.068;2023-06-10T07:20:12;8.63;;;6.22;;
52318;SDS011;38258;51.148;14.068;2023-06-10T07:22:39;6.70;;;6.00;;
52318;SDS011;38258;51.148;14.068;2023-06-10T07:25:07;8.55;;;6.43;;
52318;SDS011;38258;51.148;14.068;2023-06-10T07:27:34;8.32;;;6.28;;
52318;SDS011;38258;51.148;14.068;2023-06-10T07:30:01;7.03;;;6.05;;
52318;SDS011;38258;51.148;14.068;2023-06-10T07:32:27;9.50;;;6.22;;
52318;SDS011;38258;51.148;14.068;2023-06-10T07:34:54;7.13;;;6.43;;
52318;SDS011;38258;51.148;14.068;2023-06-10T07:37:22;8.50;;;6.25;;
52318;SDS011;38258;51.148;14.068;2023-06-10T07:39:49;6.82;;;6.05;;
52318;SDS011;38258;51.148;14.068;2023-06-10T07:42:15;6.55;;;5.88;;
52318;SDS011;38258;51.148;14.068;2023-06-10T07:44:42;8.35;;;6.45;;
52318;SDS011;38258;51.148;14.068;2023-06-10T07:47:08;8.95;;;6.53;;
52318;SDS011;38258;51.148;14.068;2023-06-10T07:49:35;6.88;;;6.18;;
52318;SDS011;38258;51.148;14.068;2023-06-10T07:52:01;7.38;;;6.68;;
52318;SDS011;38258;51.148;14.068;2023-06-10T07:54:29;8.82;;;6.90;;
52318;SDS011;38258;51.148;14.068;2023-06-10T07:56:55;7.97;;;7.18;;
52318;SDS011;38258;51.148;14.068;2023-06-10T07:59:22;9.02;;;7.45;;
52318;SDS011;38258;51.148;14.068;2023-06-10T08:01:50;9.60;;;7.47;;
52318;SDS011;38258;51.148;14.068;2023-06-10T08:04:17;7.90;;;7.10;;
52318;SDS011;38258;51.148;14.068;2023-06-10T08:06:43;8.02;;;7.13;;
52318;SDS011;38258;51.148;14.068;2023-06-10T08:09:10;8.00;;;7.20;;
52318;SDS011;38258;51.148;14.068;2023-06-10T08:11:38;21.60;;;9.25;;
52318;SDS011;38258;51.148;14.068;2023-06-10T08:14:04;10.60;;;7.65;;
52318;SDS011;38258;51.148;14.068;2023-06-10T08:16:32;9.05;;;7.63;;
52318;SDS011;38258;51.148;14.068;2023-06-10T08:18:59;8.65;;;7.10;;
52318;SDS011;38258;51.148;14.068;2023-06-10T08:21:25;10.35;;;7.88;;
52318;SDS011;38258;51.148;14.068;2023-06-10T08:23:53;7.55;;;6.43;;
52318;SDS011;38258;51.148;14.068;2023-06-10T08:26:20;8.05;;;7.22;;
52318;SDS011;38258;51.148;14.068;2023-06-10T08:28:48;10.48;;;8.02;;
52318;SDS011;38258;51.148;14.068;2023-06-10T08:31:14;8.48;;;7.28;;
52318;SDS011;38258;51.148;14.068;2023-06-10T08:33:41;8.25;;;6.90;;
52318;SDS011;38258;51.148;14.068;2023-06-10T08:36:08;7.82;;;7.03;;
52318;SDS011;38258;51.148;14.068;2023-06-10T08:38:35;7.60;;;6.82;;
52318;SDS011;38258;51.148;14.068;2023-06-10T08:41:01;8.82;;;7.60;;
52318;SDS011;38258;51.148;14.068;2023-06-10T08:43:32;9.07;;;7.70;;
52318;SDS011;38258;51.148;14.068;2023-06-10T08:46:03;8.30;;;7.40;;
52318;SDS011;38258;51.148;14.068;2023-06-10T08:48:30;9.93;;;7.22;;
52318;SDS011;38258;51.148;14.068;2023-06-10T08:50:58;8.77;;;7.07;;
52318;SDS011;38258;51.148;14.068;2023-06-10T08:53:25;9.93;;;7.70;;
52318;SDS011;38258;51.148;14.068;2023-06-10T08:55:53;8.68;;;7.78;;
52318;SDS011;38258;51.148;14.068;2023-06-10T08:58:24;8.23;;;6.95;;
52318;SDS011;38258;51.148;14.068;2023-06-10T09:00:51;9.15;;;7.30;;
52318;SDS011;38258;51.148;14.068;2023-06-10T09:03:20;8.85;;;7.10;;
52318;SDS011;38258;51.148;14.068;2023-06-10T09:05:48;8.88;;;7.97;;
52318;SDS011;38258;51.148;14.068;2023-06-10T09:08:14;8.77;;;7.68;;
52318;SDS011;38258;51.148;14.068;2023-06-10T09:10:43;8.55;;;7.57;;
52318;SDS011;38258;51.148;14.068;2023-06-10T09:13:10;8.10;;;7.18;;
52318;SDS011;38258;51.148;14.068;2023-06-10T09:15:40;7.20;;;6.50;;
52318;SDS011;38258;51.148;14.068;2023-06-10T09:18:07;8.65;;;7.13;;
52318;SDS011;38258;51.148;14.068;2023-06-10T09:20:35;8.75;;;7.85;;
52318;SDS011;38258;51.148;14.068;2023-06-10T09:23:02;7.82;;;6.93;;
52318;SDS011;38258;51.148;14.068;2023-06-10T09:25:35;7.93;;;7.13;;
52318;SDS011;38258;51.148;14.068;2023-06-10T09:28:03;8.40;;;7.40;;
52318;SDS011;38258;51.148;14.068;2023-06-10T09:30:31;7.72;;;6.93;;
52318;SDS011;38258;51.148;14.068;2023-06-10T09:32:59;7.47;;;6.65;;
52318;SDS011;38258;51.148;14.068;2023-06-10T09:35:28;7.88;;;6.63;;
52318;SDS011;38258;51.148;14.068;2023-06-10T09:37:58;8.52;;;7.38;;
52318;SDS011;38258;51.148;14.068;2023-06-10T09:40:26;8.52;;;7.10;;
52318;SDS011;38258;51.148;14.068;2023-06-10T09:42:54;8.43;;;6.90;;
52318;SDS011;38258;51.148;14.068;2023-06-10T09:45:22;8.05;;;7.10;;
52318;SDS011;38258;51.148;14.068;2023-06-10T09:47:51;15.82;;;7.65;;
52318;SDS011;38258;51.148;14.068;2023-06-10T09:50:18;8.43;;;7.53;;
52318;SDS011;38258;51.148;14.068;2023-06-10T09:52:45;9.70;;;7.78;;
52318;SDS011;38258;51.148;14.068;2023-06-10T09:55:14;8.50;;;7.70;;
52318;SDS011;38258;51.148;14.068;2023-06-10T09:57:40;9.38;;;7.43;;
52318;SDS011;38258;51.148;14.068;2023-06-10T10:00:10;8.35;;;7.43;;
52318;SDS011;38258;51.148;14.068;2023-06-10T10:02:43;8.55;;;7.20;;
52318;SDS011;38258;51.148;14.068;2023-06-10T10:05:12;8.82;;;7.32;;
52318;SDS011;38258;51.148;14.068;2023-06-10T10:07:39;8.60;;;7.68;;
52318;SDS011;38258;51.148;14.068;2023-06-10T10:10:07;8.85;;;7.47;;
52318;SDS011;38258;51.148;14.068;2023-06-10T10:12:37;8.90;;;7.22;;
52318;SDS011;38258;51.148;14.068;2023-06-10T10:15:05;8.63;;;7.40;;
52318;SDS011;38258;51.148;14.068;2023-06-10T10:17:34;7.97;;;7.10;;
52318;SDS011;38258;51.148;14.068;2023-06-10T10:20:01;8.07;;;7.25;;
52318;SDS011;38258;51.148;14.068;2023-06-10T10:22:31;7.40;;;6.70;;
52318;SDS011;38258;51.148;14.068;2023-06-10T10:25:01;8.52;;;7.20;;
52318;SDS011;38258;51.148;14.068;2023-06-10T10:27:33;7.90;;;7.07;;
52318;SDS011;38258;51.148;14.068;2023-06-10T10:30:03;7.03;;;6.28;;
52318;SDS011;38258;51.148;14.068;2023-06-10T10:32:35;8.27;;;6.80;;
52318;SDS011;38258;51.148;14.068;2023-06-10T10:35:08;7.60;;;6.78;;
52318;SDS011;38258;51.148;14.068;2023-06-10T10:37:38;7.63;;;6.82;;
52318;SDS011;38258;51.148;14.068;2023-06-10T10:40:06;7.43;;;6.72;;
52318;SDS011;38258;51.148;14.068;2023-06-10T10:42:34;7.40;;;6.70;;
52318;SDS011;38258;51.148;14.068;2023-06-10T10:45:04;7.95;;;6.88;;
52318;SDS011;38258;51.148;14.068;2023-06-10T10:47:32;7.57;;;6.78;;
52318;SDS011;38258;51.148;14.068;2023-06-10T10:50:01;7.32;;;6.70;;
52318;SDS011;38258;51.148;14.068;2023-06-10T10:52:28;7.95;;;7.15;;
52318;SDS011;38258;51.148;14.068;2023-06-10T10:55:16;7.97;;;6.55;;
52318;SDS011;38258;51.148;14.068;2023-06-10T10:57:43;8.35;;;7.45;;
52318;SDS011;38258;51.148;14.068;2023-06-10T11:00:12;7.82;;;7.03;;
52318;SDS011;38258;51.148;14.068;2023-06-10T11:02:50;8.32;;;7.05;;
52318;SDS011;38258;51.148;14.068;2023-06-10T11:05:20;7.82;;;7.03;;
52318;SDS011;38258;51.148;14.068;2023-06-10T11:07:57;8.48;;;7.07;;
52318;SDS011;38258;51.148;14.068;2023-06-10T11:10:28;8.45;;;7.65;;
52318;SDS011;38258;51.148;14.068;2023-06-10T11:12:56;8.38;;;7.57;;
52318;SDS011;38258;51.148;14.068;2023-06-10T11:15:25;8.25;;;7.13;;
52318;SDS011;38258;51.148;14.068;2023-06-10T11:20:42;9.52;;;7.03;;
52318;SDS011;38258;51.148;14.068;2023-06-10T11:23:29;9.73;;;7.50;;
52318;SDS011;38258;51.148;14.068;2023-06-10T11:26:16;8.57;;;7.68;;
52318;SDS011;38258;51.148;14.068;2023-06-10T11:29:08;8.50;;;7.50;;
52318;SDS011;38258;51.148;14.068;2023-06-10T11:31:40;13.75;;;9.35;;
52318;SDS011;38258;51.148;14.068;2023-06-10T11:34:08;13.48;;;8.20;;
52318;SDS011;38258;51.148;14.068;2023-06-10T11:36:36;9.13;;;7.13;;
52318;SDS011;38258;51.148;14.068;2023-06-10T11:39:08;18.55;;;9.02;;
52318;SDS011;38258;51.148;14.068;2023-06-10T11:41:35;9.60;;;8.60;;
52318;SDS011;38258;51.148;14.068;2023-06-10T11:44:05;10.52;;;8.57;;
52318;SDS011;38258;51.148;14.068;2023-06-10T11:46:34;8.80;;;7.90;;
52318;SDS011;38258;51.148;14.068;2023-06-10T11:49:02;8.50;;;7.55;;
52318;SDS011;38258;51.148;14.068;2023-06-10T11:51:32;9.45;;;8.10;;
52318;SDS011;38258;51.148;14.068;2023-06-10T11:54:00;8.98;;;8.07;;
52318;SDS011;38258;51.148;14.068;2023-06-10T11:56:27;9.55;;;7.60;;
52318;SDS011;38258;51.148;14.068;2023-06-10T11:58:55;13.65;;;7.00;;
52318;SDS011;38258;51.148;14.068;2023-06-10T12:01:23;9.13;;;6.97;;
52318;SDS011;38258;51.148;14.068;2023-06-10T12:03:58;10.38;;;7.43;;
52318;SDS011;38258;51.148;14.068;2023-06-10T12:06:26;9.55;;;7.35;;
52318;SDS011;38258;51.148;14.068;2023-06-10T12:08:53;8.15;;;7.32;;
52318;SDS011;38258;51.148;14.068;2023-06-10T12:11:21;9.38;;;7.45;;
52318;SDS011;38258;51.148;14.068;2023-06-10T12:13:48;8.70;;;7.40;;
52318;SDS011;38258;51.148;14.068;2023-06-10T12:16:16;10.57;;;8.25;;
52318;SDS011;38258;51.148;14.068;2023-06-10T12:18:44;10.05;;;8.25;;
52318;SDS011;38258;51.148;14.068;2023-06-10T12:21:20;8.50;;;7.70;;
52318;SDS011;38258;51.148;14.068;2023-06-10T12:24:00;9.00;;;8.10;;
52318;SDS011;38258;51.148;14.068;2023-06-10T12:29:21;10.27;;;7.72;;
52318;SDS011;38258;51.148;14.068;2023-06-10T12:31:56;8.13;;;7.07;;
52318;SDS011;38258;51.148;14.068;2023-06-10T12:34:27;7.85;;;7.00;;
52318;SDS011;38258;51.148;14.068;2023-06-10T12:36:58;9.35;;;6.75;;
52318;SDS011;38258;51.148;14.068;2023-06-10T12:39:26;7.50;;;6.80;;
52318;SDS011;38258;51.148;14.068;2023-06-10T12:41:53;8.63;;;7.22;;
52318;SDS011;38258;51.148;14.068;2023-06-10T12:44:28;7.90;;;7.10;;
52318;SDS011;38258;51.148;14.068;2023-06-10T12:46:55;8.40;;;7.43;;
52318;SDS011;38258;51.148;14.068;2023-06-10T12:49:21;8.13;;;7.35;;
52318;SDS011;38258;51.148;14.068;2023-06-10T12:51:48;10.30;;;7.60;;
52318;SDS011;38258;51.148;14.068;2023-06-10T12:54:15;9.02;;;7.78;;
52318;SDS011;38258;51.148;14.068;2023-06-10T12:56:42;7.80;;;6.22;;
52318;SDS011;38258;51.148;14.068;2023-06-10T12:59:09;7.38;;;6.50;;
52318;SDS011;38258;51.148;14.068;2023-06-10T13:01:37;9.65;;;6.50;;
52318;SDS011;38258;51.148;14.068;2023-06-10T13:04:04;9.10;;;5.90;;
52318;SDS011;38258;51.148;14.068;2023-06-10T13:06:32;6.93;;;5.90;;
52318;SDS011;38258;51.148;14.068;2023-06-10T13:09:01;6.93;;;6.13;;
52318;SDS011;38258;51.148;14.068;2023-06-10T13:11:28;6.55;;;5.78;;
52318;SDS011;38258;51.148;14.068;2023-06-10T13:13:56;6.63;;;5.50;;
52318;SDS011;38258;51.148;14.068;2023-06-10T13:16:23;6.45;;;5.25;;
52318;SDS011;38258;51.148;14.068;2023-06-10T13:18:50;5.88;;;5.28;;
52318;SDS011;38258;51.148;14.068;2023-06-10T13:21:18;8.00;;;5.35;;
52318;SDS011;38258;51.148;14.068;2023-06-10T13:23:45;6.43;;;5.45;;
52318;SDS011;38258;51.148;14.068;2023-06-10T13:26:12;7.15;;;5.47;;
52318;SDS011;38258;51.148;14.068;2023-06-10T13:28:39;6.30;;;5.70;;
52318;SDS011;38258;51.148;14.068;2023-06-10T13:31:07;8.05;;;6.00;;
52318;SDS011;38258;51.148;14.068;2023-06-10T13:33:33;6.45;;;5.55;;
52318;SDS011;38258;51.148;14.068;2023-06-10T13:36:00;6.70;;;5.97;;
52318;SDS011;38258;51.148;14.068;2023-06-10T13:38:26;7.25;;;5.60;;
52318;SDS011;38258;51.148;14.068;2023-06-10T13:40:53;6.13;;;5.53;;
52318;SDS011;38258;51.148;14.068;2023-06-10T13:43:19;6.18;;;5.57;;
52318;SDS011;38258;51.148;14.068;2023-06-10T13:45:46;6.53;;;5.82;;
52318;SDS011;38258;51.148;14.068;2023-06-10T13:48:14;7.07;;;5.00;;
52318;SDS011;38258;51.148;14.068;2023-06-10T13:50:40;8.13;;;5.70;;
52318;SDS011;38258;51.148;14.068;2023-06-10T13:53:10;6.05;;;5.45;;
52318;SDS011;38258;51.148;14.068;2023-06-10T13:55:37;6.93;;;5.50;;
52318;SDS011;38258;51.148;14.068;2023-06-10T13:58:03;7.47;;;5.65;;
52318;SDS011;38258;51.148;14.068;2023-06-10T14:00:30;6.50;;;5.30;;
52318;SDS011;38258;51.148;14.068;2023-06-10T14:02:57;5.93;;;5.13;;
52318;SDS011;38258;51.148;14.068;2023-06-10T14:05:24;6.35;;;5.68;;
52318;SDS011;38258;51.148;14.068;2023-06-10T14:07:51;7.72;;;5.80;;
52318;SDS011;38258;51.148;14.068;2023-06-10T14:10:17;6.25;;;5.60;;
52318;SDS011;38258;51.148;14.068;2023-06-10T14:12:44;7.22;;;5.60;;
52318;SDS011;38258;51.148;14.068;2023-06-10T14:15:10;8.07;;;5.93;;
52318;SDS011;38258;51.148;14.068;2023-06-10T14:17:37;8.05;;;5.60;;
52318;SDS011;38258;51.148;14.068;2023-06-10T14:20:04;6.80;;;6.10;;
52318;SDS011;38258;51.148;14.068;2023-06-10T14:22:32;7.25;;;6.30;;
52318;SDS011;38258;51.148;14.068;2023-06-10T14:24:59;7.78;;;6.07;;
52318;SDS011;38258;51.148;14.068;2023-06-10T14:27:25;8.23;;;6.43;;
52318;SDS011;38258;51.148;14.068;2023-06-10T14:29:51;6.93;;;6.22;;
52318;SDS011;38258;51.148;14.068;2023-06-10T14:32:18;6.88;;;6.18;;
52318;SDS011;38258;51.148;14.068;2023-06-10T14:34:45;8.00;;;6.72;;
52318;SDS011;38258;51.148;14.068;2023-06-10T14:37:12;7.18;;;6.32;;
52318;SDS011;38258;51.148;14.068;2023-06-10T14:39:40;7.30;;;6.47;;
52318;SDS011;38258;51.148;14.068;2023-06-10T14:42:06;7.28;;;6.57;;